AirNav   Air Wisconsin Up To $57,000 Bonus
 
 574 users online  

3NK7 B/G Heliport
Gilboa/Grand Gorge, New York, USA

GOING TO GILBOA/GRAND GORGE?


FAA INFORMATION EFFECTIVE 27 FEBRUARY 2020

Location

FAA Identifier: 3NK7
Lat/Long: 42-25-29.2860N 074-27-03.5280W
42-25.488100N 074-27.058800W
42.4248017,-74.4509800
(estimated)
Elevation: 1100 ft. / 335 m (estimated)
Variation: 13W (1985)
From city: 5 miles NE of central business district of the associated city
Time zone: UTC -5 (UTC -4 during Daylight Saving Time)
Zip code: 12076

Heliport Operations

Heliport use: Private use. Permission required prior to landing
Activation date: 01/1988
Control tower: no
ARTCC: BOSTON CENTER
FSS: BUFFALO FLIGHT SERVICE STATION
Attendance: CONTINUOUS
Wind indicator: yes
Segmented circle: yes

Nearby radio navigation aids

VOR radial/distance  VOR name  Freq  Var
DNYr068/26.9DELANCEY VOR/DME112.1011W
ALBr249/34.5ALBANY VORTAC115.3013W
RKAr105/35.0ROCKDALE VOR/DME112.6011W

 
NDB name  Hdg/Dist  Freq  Var  ID
PHILMONT301/33.927213WPFH .--. ..-. ....
HUNTER236/34.435614WHEU .... . ..-
JOHNSTOWN203/34.952314WJJH .--- .--- ....

Heliport Services

Runway Information

Helipad H1

Dimensions: 40 x 40 ft. / 12 x 12 m
Surface: asphalt
Traffic pattern: leftleft

Heliport Ownership and Management from official FAA records

Ownership: Publicly-owned
Owner: NEW YORK POWER AUTHORITY
397 POWER PLANT ACCESS ROAD
GILBOA, NY 12076
Phone (518) 287-6000
Manager: BRIAN SAEZ
397 POWER PLANT ACCESS ROAD
GILBOA, NY 12076
Phone (518) 287-6000

Additional Remarks

FOR CD CTC ALBANY APCH AT 518-862-2299.

Instrument Procedures

There are no published instrument procedures at 3NK7.

Some nearby airports with instrument procedures:

N66 - Oneonta Municipal Airport (28 nm W)
4B0 - South Albany Airport (28 nm E)
1B1 - Columbia County Airport (34 nm E)
20N - Kingston-Ulster Airport (34 nm SE)
KSCH - Schenectady County Airport (34 nm NE)
 
Loc | Ops | Rwys | IFR | FBO | Links
Com | Nav | Svcs | Stats | Notes
Area around 3NK7 (B/G Heliport)
 
Road maps at: MapQuest Bing Google
 
Aerial photo
No photo
 
Sectional chart

 
Airport distance calculator
Flying to B/G Heliport? Find the distance to fly.

From to 3NK7

Sunrise and sunset
Times for 29-Feb-2020
 Local
(UTC-5)
 Zulu
(UTC)
Morning civil twilight06:0611:06
Sunrise06:3411:34
Sunset17:4622:46
Evening civil twilight18:1423:14

Current date and time
Zulu (UTC)  29-Feb-2020 07:05:07
Local (UTC-5)  29-Feb-2020 02:05:07
 
METAR
KSCH 
35nm NE 
290245Z 25007KT 10SM SCT040 BKN048 OVC050 M03/M08 A2979 RMK LAST
KALB 
35nm NE 
290651Z 22006KT 10SM FEW035 M06/M11 A2977 RMK AO2 SLP083 T10561106
KNY0 
35nm N 
290655Z AUTO 26008KT 10SM BKN035 OVC047 M06/M10 A2971 RMK AO2
KMSV 
46nm S 
290656Z AUTO 26006KT 10SM CLR M07/M12 A2975 RMK AO2 SLP092 T10721117 FZRANO
TAF
KALB 
35nm NE 
290537Z 2906/0106 24006KT P6SM SCT035 BKN050 FM291100 26008KT P6SM VCSH BKN035 BKN050 FM291400 29012G20KT P6SM BKN035 BKN050 FM292000 29015G23KT P6SM BKN050 FM292300 30012KT P6SM BKN050 FM010400 30008KT P6SM SCT050 SCT250
NOTAMs
Click for the latest NOTAMs
NOTAMs are issued by the DoD/FAA and will open in a separate window not controlled by AirNav.

 

 
 

Would you like to see your business listed on this page?

 If your business provides an interesting product or service to pilots, flight crews, aircraft, or users of the B/G Heliport, you should consider listing it here.  To start the listing process, click on the button below
 
Add a business
 

Other Pages about B/G Heliport

Update a link
 
Copyright © AirNav, LLC. All rights reserved. Privacy Policy  Contact